This is the latest recevied weather packets stored in our database for station/object EB2EMZ-3. If no packets are shown the sender has not sent any weather packets the latest 1 day(s).
| Time | Temp. | Humidity | Pressure | Rain* | Wind** | Luminosity | Snow |
|---|---|---|---|---|---|---|---|
| 1778005474 | 17.22° C | 75% | 1009.9 hPa | 0 mm | 0 m/s | - | - |
| 1778005174 | 16.67° C | 75% | 1010 hPa | 0 mm | 0 m/s | - | - |
| 1778004874 | 16.67° C | 75% | 1009.9 hPa | 0 mm | 0 m/s | - | - |
| 1778004574 | 17.22° C | 75% | 1009.8 hPa | 0 mm | 0.45 m/s, 22° | - | - |
| 1778004274 | 17.22° C | 75% | 1009.9 hPa | 0 mm | 0 m/s | - | - |
| 1778003974 | 17.22° C | 73% | 1009.7 hPa | 0 mm | 0 m/s | - | - |
| 1778003674 | 17.22° C | 73% | 1010 hPa | 0 mm | 1.34 m/s, 22° | - | - |
| 1778003374 | 17.22° C | 73% | 1009.7 hPa | 0 mm | 2.68 m/s, 0° | - | - |
| 1778003074 | 17.22° C | 72% | 1009.8 hPa | 0 mm | 1.79 m/s, 0° | - | - |
| 1778002774 | 17.22° C | 72% | 1010 hPa | 0 mm | 2.68 m/s, 337° | - | - |
| 1778002474 | 17.22° C | 72% | 1009.8 hPa | 0 mm | 0.45 m/s, 0° | - | - |
| 1778002174 | 17.78° C | 71% | 1009.9 hPa | 0 mm | 0.45 m/s, 45° | - | - |
| 1778001874 | 17.78° C | 69% | 1009.8 hPa | 0 mm | 0.45 m/s, 45° | - | - |
| 1778001574 | 17.78° C | 69% | 1009.7 hPa | 0 mm | 0.89 m/s, 45° | - | - |
| 1778001274 | 17.78° C | 69% | 1009.7 hPa | 0 mm | 0.89 m/s, 90° | - | - |
| 1778000974 | 18.33° C | 67% | 1009.5 hPa | 0 mm | 2.24 m/s, 67° | - | - |
| 1778000674 | 18.33° C | 66% | 1009.6 hPa | 0 mm | 1.34 m/s, 0° | - | - |
| 1778000374 | 18.89° C | 66% | 1009.7 hPa | 0 mm | 1.34 m/s, 0° | - | - |
| 1778000074 | 18.89° C | 67% | 1009.6 hPa | 0 mm | 0 m/s | - | - |
| 1777999774 | 18.89° C | 67% | 1009.6 hPa | 0 mm | 0.45 m/s, 45° | - | - |
| 1777999474 | 18.89° C | 67% | 1009.6 hPa | 0 mm | 0 m/s | - | - |
| 1777999174 | 18.89° C | 66% | 1009.7 hPa | 0 mm | 0 m/s | - | - |
| 1777998874 | 18.89° C | 66% | 1009.8 hPa | 0 mm | 0 m/s | - | - |
| 1777998574 | 19.44° C | 66% | 1009.7 hPa | 0 mm | 0 m/s | - | - |
| 1777998274 | 19.44° C | 66% | 1009.7 hPa | 0 mm | 0 m/s | - | - |
* Rain latest hour (hover to see other rain measurements)
** Current wind speed in m/s (hover to see current wind gust speed)